Terminal Aerodrome Forecast
Issued by NWS

Home | Current Version | Previous Version | Text Only | Print | Product List | Glossary Off
Versions: 1 2 3 4 5 6 7 8 9 10 11 12 13 14 15 16 17 18 19 20 21 22 23 24 25 26

516
FTUS43 KLOT 142045 AAA
TAFORD
TAF AMD
KORD 142045Z 1421/1524 29005KT P6SM BKN250
     FM150300 24007KT P6SM SCT040 BKN100
     FM150900 26009KT P6SM SCT025 OVC050
     FM151400 28014G21KT P6SM SCT025 BKN040=

USA.gov is the U.S. government's official web portal to all federal, state and local government web resources and services.